Barton Mills, United Kingdom
Current Conditions -  °F | °C
As of 7:58 PM on Monday 24 Nov 2014 (Local Time) from EGUN Reporting Station
Clear Clear  
Wind Chill: 36°   Ceiling: Unl
Heat Index: 36°   Visibility: 6mi
Dew Point: 35°   Wind: 3mph
Humidity: 97%   Direction: 140°SE
Pressure: 30.33"   Gusts: NA
Location:  52.33°N, 0.53°E
Report Text: EGUN 241958Z AUTO 14003KT 9999 CLR 02/02 A3033 RMK AO2 VIS 4000 RWY11 SLP274 T00210017
Loading
Personal Weather Stations






























Interactive Weather Map New forecast layout! Learn more

10-Day Weather Forecast

Advertisements
Track Severe Weather on mobile